sensor_id;sensor_type;location;lat;lon;timestamp;temperature;humidity
5136;DHT22;2586;48.710;9.202;2022-12-07T00:01:40;3.10;1.00
5136;DHT22;2586;48.710;9.202;2022-12-07T00:04:08;3.10;1.00
5136;DHT22;2586;48.710;9.202;2022-12-07T00:06:37;3.10;1.00
5136;DHT22;2586;48.710;9.202;2022-12-07T00:09:04;3.10;99.90
5136;DHT22;2586;48.710;9.202;2022-12-07T00:11:31;3.10;99.90
5136;DHT22;2586;48.710;9.202;2022-12-07T00:13:59;3.20;99.90
5136;DHT22;2586;48.710;9.202;2022-12-07T00:16:28;3.10;99.90
5136;DHT22;2586;48.710;9.202;2022-12-07T00:18:54;3.10;73.70
5136;DHT22;2586;48.710;9.202;2022-12-07T00:21:22;3.20;17.90
5136;DHT22;2586;48.710;9.202;2022-12-07T00:23:49;3.10;1.00
5136;DHT22;2586;48.710;9.202;2022-12-07T00:26:18;3.10;1.00
5136;DHT22;2586;48.710;9.202;2022-12-07T00:28:49;3.10;1.00
5136;DHT22;2586;48.710;9.202;2022-12-07T00:31:16;3.10;1.00
5136;DHT22;2586;48.710;9.202;2022-12-07T00:33:42;3.10;1.00
5136;DHT22;2586;48.710;9.202;2022-12-07T00:36:16;3.20;1.00
5136;DHT22;2586;48.710;9.202;2022-12-07T00:38:42;3.10;99.90
5136;DHT22;2586;48.710;9.202;2022-12-07T00:41:14;3.10;99.90
5136;DHT22;2586;48.710;9.202;2022-12-07T00:43:40;3.10;1.00
5136;DHT22;2586;48.710;9.202;2022-12-07T00:46:06;3.10;14.80
5136;DHT22;2586;48.710;9.202;2022-12-07T00:48:31;3.10;99.90
5136;DHT22;2586;48.710;9.202;2022-12-07T00:50:57;3.10;1.00
5136;DHT22;2586;48.710;9.202;2022-12-07T00:53:24;3.10;99.90
5136;DHT22;2586;48.710;9.202;2022-12-07T00:55:50;3.10;1.00
5136;DHT22;2586;48.710;9.202;2022-12-07T00:58:15;3.10;1.00
5136;DHT22;2586;48.710;9.202;2022-12-07T01:00:42;3.10;23.00
5136;DHT22;2586;48.710;9.202;2022-12-07T01:03:09;3.10;57.40
5136;DHT22;2586;48.710;9.202;2022-12-07T01:05:35;3.00;28.00
5136;DHT22;2586;48.710;9.202;2022-12-07T01:08:02;3.00;99.90
5136;DHT22;2586;48.710;9.202;2022-12-07T01:10:28;3.10;99.90
5136;DHT22;2586;48.710;9.202;2022-12-07T01:12:55;3.10;99.90
5136;DHT22;2586;48.710;9.202;2022-12-07T01:15:21;3.10;43.90
5136;DHT22;2586;48.710;9.202;2022-12-07T01:17:47;3.20;99.90
5136;DHT22;2586;48.710;9.202;2022-12-07T01:20:13;3.40;99.90
5136;DHT22;2586;48.710;9.202;2022-12-07T01:22:40;3.50;99.90
5136;DHT22;2586;48.710;9.202;2022-12-07T01:25:07;3.60;99.90
5136;DHT22;2586;48.710;9.202;2022-12-07T01:27:34;3.50;99.90
5136;DHT22;2586;48.710;9.202;2022-12-07T01:30:00;3.40;99.90
5136;DHT22;2586;48.710;9.202;2022-12-07T01:32:26;3.20;1.00
5136;DHT22;2586;48.710;9.202;2022-12-07T01:34:52;3.10;1.00
5136;DHT22;2586;48.710;9.202;2022-12-07T01:37:18;3.10;1.00
5136;DHT22;2586;48.710;9.202;2022-12-07T01:39:44;3.10;1.00
5136;DHT22;2586;48.710;9.202;2022-12-07T01:42:10;3.00;1.00
5136;DHT22;2586;48.710;9.202;2022-12-07T01:47:39;3.00;99.90
5136;DHT22;2586;48.710;9.202;2022-12-07T01:50:05;2.90;99.90
5136;DHT22;2586;48.710;9.202;2022-12-07T01:52:33;2.90;99.90
5136;DHT22;2586;48.710;9.202;2022-12-07T01:55:11;2.90;54.00
5136;DHT22;2586;48.710;9.202;2022-12-07T01:57:41;2.90;12.70
5136;DHT22;2586;48.710;9.202;2022-12-07T02:00:08;2.90;99.90
5136;DHT22;2586;48.710;9.202;2022-12-07T02:02:38;2.90;18.10
5136;DHT22;2586;48.710;9.202;2022-12-07T02:05:05;2.90;1.00
5136;DHT22;2586;48.710;9.202;2022-12-07T02:07:33;2.90;99.90
5136;DHT22;2586;48.710;9.202;2022-12-07T02:10:17;2.80;99.90
5136;DHT22;2586;48.710;9.202;2022-12-07T02:12:46;2.80;99.90
5136;DHT22;2586;48.710;9.202;2022-12-07T02:15:15;2.80;99.90
5136;DHT22;2586;48.710;9.202;2022-12-07T02:20:29;2.80;1.00
5136;DHT22;2586;48.710;9.202;2022-12-07T02:23:21;2.70;1.00
5136;DHT22;2586;48.710;9.202;2022-12-07T02:28:36;2.70;1.00
5136;DHT22;2586;48.710;9.202;2022-12-07T02:31:11;2.70;1.00
5136;DHT22;2586;48.710;9.202;2022-12-07T02:36:46;2.70;1.00
5136;DHT22;2586;48.710;9.202;2022-12-07T02:39:41;2.60;99.90
5136;DHT22;2586;48.710;9.202;2022-12-07T02:42:14;2.60;99.90
5136;DHT22;2586;48.710;9.202;2022-12-07T02:44:40;2.60;99.90
5136;DHT22;2586;48.710;9.202;2022-12-07T02:47:10;2.50;1.00
5136;DHT22;2586;48.710;9.202;2022-12-07T02:49:38;2.50;1.00
5136;DHT22;2586;48.710;9.202;2022-12-07T02:52:05;2.50;99.90
5136;DHT22;2586;48.710;9.202;2022-12-07T02:54:30;2.50;99.90
5136;DHT22;2586;48.710;9.202;2022-12-07T02:57:25;2.50;99.90
5136;DHT22;2586;48.710;9.202;2022-12-07T03:00:10;2.50;99.90
5136;DHT22;2586;48.710;9.202;2022-12-07T03:02:55;2.60;99.90
5136;DHT22;2586;48.710;9.202;2022-12-07T03:05:33;2.60;99.90
5136;DHT22;2586;48.710;9.202;2022-12-07T03:16:27;2.50;1.00
5136;DHT22;2586;48.710;9.202;2022-12-07T03:19:10;2.60;35.80
5136;DHT22;2586;48.710;9.202;2022-12-07T03:21:44;2.60;27.60
5136;DHT22;2586;48.710;9.202;2022-12-07T03:24:14;2.60;99.90
5136;DHT22;2586;48.710;9.202;2022-12-07T03:26:58;2.60;31.90
5136;DHT22;2586;48.710;9.202;2022-12-07T03:29:31;2.60;1.00
5136;DHT22;2586;48.710;9.202;2022-12-07T03:32:08;2.60;38.50
5136;DHT22;2586;48.710;9.202;2022-12-07T03:34:51;2.60;1.00
5136;DHT22;2586;48.710;9.202;2022-12-07T03:37:31;2.50;1.00
5136;DHT22;2586;48.710;9.202;2022-12-07T03:40:03;2.50;1.00
5136;DHT22;2586;48.710;9.202;2022-12-07T03:42:32;2.50;64.60
5136;DHT22;2586;48.710;9.202;2022-12-07T03:44:59;2.50;99.90
5136;DHT22;2586;48.710;9.202;2022-12-07T03:47:50;2.50;99.90
5136;DHT22;2586;48.710;9.202;2022-12-07T03:50:29;2.50;1.00
5136;DHT22;2586;48.710;9.202;2022-12-07T03:53:00;2.50;1.00
5136;DHT22;2586;48.710;9.202;2022-12-07T03:55:31;2.50;1.00
5136;DHT22;2586;48.710;9.202;2022-12-07T03:58:11;2.50;1.00
5136;DHT22;2586;48.710;9.202;2022-12-07T04:00:37;2.50;1.00
5136;DHT22;2586;48.710;9.202;2022-12-07T04:03:03;2.50;1.00
5136;DHT22;2586;48.710;9.202;2022-12-07T04:05:29;2.50;1.00
5136;DHT22;2586;48.710;9.202;2022-12-07T04:07:55;2.40;99.90
5136;DHT22;2586;48.710;9.202;2022-12-07T04:10:21;2.40;99.90
5136;DHT22;2586;48.710;9.202;2022-12-07T04:12:46;2.40;99.90
5136;DHT22;2586;48.710;9.202;2022-12-07T04:15:12;2.40;99.90
5136;DHT22;2586;48.710;9.202;2022-12-07T04:17:38;2.40;99.90
5136;DHT22;2586;48.710;9.202;2022-12-07T04:20:04;2.40;99.90
5136;DHT22;2586;48.710;9.202;2022-12-07T04:22:30;2.40;99.90
5136;DHT22;2586;48.710;9.202;2022-12-07T04:24:56;2.40;99.90
5136;DHT22;2586;48.710;9.202;2022-12-07T04:27:21;2.40;1.00
5136;DHT22;2586;48.710;9.202;2022-12-07T04:29:47;2.40;99.90
5136;DHT22;2586;48.710;9.202;2022-12-07T04:32:12;2.40;99.90
5136;DHT22;2586;48.710;9.202;2022-12-07T04:34:38;2.40;99.90
5136;DHT22;2586;48.710;9.202;2022-12-07T04:37:03;2.40;99.90
5136;DHT22;2586;48.710;9.202;2022-12-07T04:39:30;2.40;1.00
5136;DHT22;2586;48.710;9.202;2022-12-07T04:41:57;2.40;1.00
5136;DHT22;2586;48.710;9.202;2022-12-07T04:44:25;2.30;1.00
5136;DHT22;2586;48.710;9.202;2022-12-07T04:46:51;2.30;1.00
5136;DHT22;2586;48.710;9.202;2022-12-07T04:49:18;2.30;1.00
5136;DHT22;2586;48.710;9.202;2022-12-07T04:51:44;2.30;99.90
5136;DHT22;2586;48.710;9.202;2022-12-07T04:54:10;2.20;99.90
5136;DHT22;2586;48.710;9.202;2022-12-07T04:56:36;2.20;99.90
5136;DHT22;2586;48.710;9.202;2022-12-07T04:59:02;2.20;1.00
5136;DHT22;2586;48.710;9.202;2022-12-07T05:01:28;2.30;99.90
5136;DHT22;2586;48.710;9.202;2022-12-07T05:03:53;2.30;99.90
5136;DHT22;2586;48.710;9.202;2022-12-07T05:06:19;2.30;1.00
5136;DHT22;2586;48.710;9.202;2022-12-07T05:08:45;2.40;99.90
5136;DHT22;2586;48.710;9.202;2022-12-07T05:11:11;2.40;1.00
5136;DHT22;2586;48.710;9.202;2022-12-07T05:14:02;2.40;1.00
5136;DHT22;2586;48.710;9.202;2022-12-07T05:16:28;2.40;99.90
5136;DHT22;2586;48.710;9.202;2022-12-07T05:18:54;2.40;1.00
5136;DHT22;2586;48.710;9.202;2022-12-07T05:21:20;2.50;1.00
5136;DHT22;2586;48.710;9.202;2022-12-07T05:23:45;2.50;1.00
5136;DHT22;2586;48.710;9.202;2022-12-07T05:26:11;2.50;59.60
5136;DHT22;2586;48.710;9.202;2022-12-07T05:28:36;2.50;55.80
5136;DHT22;2586;48.710;9.202;2022-12-07T05:31:02;2.50;1.00
5136;DHT22;2586;48.710;9.202;2022-12-07T05:33:28;2.50;99.90
5136;DHT22;2586;48.710;9.202;2022-12-07T05:35:54;2.60;21.20
5136;DHT22;2586;48.710;9.202;2022-12-07T05:38:19;2.60;99.90
5136;DHT22;2586;48.710;9.202;2022-12-07T05:40:45;2.60;99.90
5136;DHT22;2586;48.710;9.202;2022-12-07T05:43:10;2.50;1.00
5136;DHT22;2586;48.710;9.202;2022-12-07T05:45:36;2.40;27.50
5136;DHT22;2586;48.710;9.202;2022-12-07T05:48:02;2.30;99.90
5136;DHT22;2586;48.710;9.202;2022-12-07T05:50:27;2.20;1.00
5136;DHT22;2586;48.710;9.202;2022-12-07T05:52:53;2.10;32.30
5136;DHT22;2586;48.710;9.202;2022-12-07T05:55:19;2.10;99.90
5136;DHT22;2586;48.710;9.202;2022-12-07T05:57:45;2.00;99.90
5136;DHT22;2586;48.710;9.202;2022-12-07T06:00:30;1.90;99.90
5136;DHT22;2586;48.710;9.202;2022-12-07T06:02:56;1.80;99.90
5136;DHT22;2586;48.710;9.202;2022-12-07T06:05:21;1.70;99.90
5136;DHT22;2586;48.710;9.202;2022-12-07T06:07:47;1.70;99.90
5136;DHT22;2586;48.710;9.202;2022-12-07T06:10:13;1.70;83.90
5136;DHT22;2586;48.710;9.202;2022-12-07T06:12:38;1.60;99.90
5136;DHT22;2586;48.710;9.202;2022-12-07T06:15:05;1.60;78.80
5136;DHT22;2586;48.710;9.202;2022-12-07T06:17:31;1.60;99.90
5136;DHT22;2586;48.710;9.202;2022-12-07T06:19:56;1.60;99.90
5136;DHT22;2586;48.710;9.202;2022-12-07T06:22:22;1.60;99.90
5136;DHT22;2586;48.710;9.202;2022-12-07T06:24:48;1.60;1.00
5136;DHT22;2586;48.710;9.202;2022-12-07T06:27:13;1.60;1.00
5136;DHT22;2586;48.710;9.202;2022-12-07T06:29:39;1.60;1.00
5136;DHT22;2586;48.710;9.202;2022-12-07T06:32:04;1.60;1.00
5136;DHT22;2586;48.710;9.202;2022-12-07T06:34:30;1.60;1.00
5136;DHT22;2586;48.710;9.202;2022-12-07T06:36:56;1.70;1.00
5136;DHT22;2586;48.710;9.202;2022-12-07T06:39:26;1.70;1.00
5136;DHT22;2586;48.710;9.202;2022-12-07T06:41:52;1.70;1.00
5136;DHT22;2586;48.710;9.202;2022-12-07T06:44:18;1.70;1.00
5136;DHT22;2586;48.710;9.202;2022-12-07T06:46:44;1.70;1.00
5136;DHT22;2586;48.710;9.202;2022-12-07T06:49:09;1.70;1.00
5136;DHT22;2586;48.710;9.202;2022-12-07T06:51:35;1.60;1.00
5136;DHT22;2586;48.710;9.202;2022-12-07T06:54:03;1.60;1.00
5136;DHT22;2586;48.710;9.202;2022-12-07T06:56:29;1.70;60.90
5136;DHT22;2586;48.710;9.202;2022-12-07T06:58:55;1.70;1.00
5136;DHT22;2586;48.710;9.202;2022-12-07T07:01:20;1.70;99.90
5136;DHT22;2586;48.710;9.202;2022-12-07T07:03:46;1.70;1.00
5136;DHT22;2586;48.710;9.202;2022-12-07T07:06:13;1.70;1.00
5136;DHT22;2586;48.710;9.202;2022-12-07T07:08:39;1.60;1.00
5136;DHT22;2586;48.710;9.202;2022-12-07T07:11:06;1.60;99.90
5136;DHT22;2586;48.710;9.202;2022-12-07T07:13:32;1.60;99.90
5136;DHT22;2586;48.710;9.202;2022-12-07T07:15:57;1.70;1.00
5136;DHT22;2586;48.710;9.202;2022-12-07T07:18:23;1.80;99.90
5136;DHT22;2586;48.710;9.202;2022-12-07T07:20:50;1.80;1.00
5136;DHT22;2586;48.710;9.202;2022-12-07T07:23:16;1.80;99.90
5136;DHT22;2586;48.710;9.202;2022-12-07T07:25:42;1.90;99.90
5136;DHT22;2586;48.710;9.202;2022-12-07T07:28:08;1.90;99.90
5136;DHT22;2586;48.710;9.202;2022-12-07T07:30:33;2.00;99.90
5136;DHT22;2586;48.710;9.202;2022-12-07T07:33:00;2.00;1.00
5136;DHT22;2586;48.710;9.202;2022-12-07T07:35:27;2.00;99.90
5136;DHT22;2586;48.710;9.202;2022-12-07T07:37:53;2.10;99.90
5136;DHT22;2586;48.710;9.202;2022-12-07T07:40:18;2.10;57.50
5136;DHT22;2586;48.710;9.202;2022-12-07T07:42:47;2.10;99.90
5136;DHT22;2586;48.710;9.202;2022-12-07T07:45:13;2.00;99.90
5136;DHT22;2586;48.710;9.202;2022-12-07T07:47:39;2.00;99.90
5136;DHT22;2586;48.710;9.202;2022-12-07T07:50:05;2.00;1.00
5136;DHT22;2586;48.710;9.202;2022-12-07T07:52:31;2.10;1.00
5136;DHT22;2586;48.710;9.202;2022-12-07T07:54:56;2.10;1.00
5136;DHT22;2586;48.710;9.202;2022-12-07T07:57:22;2.10;1.00
5136;DHT22;2586;48.710;9.202;2022-12-07T07:59:47;2.20;98.80
5136;DHT22;2586;48.710;9.202;2022-12-07T08:02:15;2.20;1.00
5136;DHT22;2586;48.710;9.202;2022-12-07T08:04:41;2.30;1.00
5136;DHT22;2586;48.710;9.202;2022-12-07T08:07:07;2.60;20.90
5136;DHT22;2586;48.710;9.202;2022-12-07T08:09:32;2.50;99.90
5136;DHT22;2586;48.710;9.202;2022-12-07T08:11:58;2.40;1.00
5136;DHT22;2586;48.710;9.202;2022-12-07T08:14:24;2.40;1.00
5136;DHT22;2586;48.710;9.202;2022-12-07T08:16:50;2.40;1.00
5136;DHT22;2586;48.710;9.202;2022-12-07T08:19:15;2.40;1.00
5136;DHT22;2586;48.710;9.202;2022-12-07T08:21:41;2.40;1.00
5136;DHT22;2586;48.710;9.202;2022-12-07T08:24:07;2.30;1.00
5136;DHT22;2586;48.710;9.202;2022-12-07T08:26:32;2.40;1.00
5136;DHT22;2586;48.710;9.202;2022-12-07T08:28:59;2.40;99.90
5136;DHT22;2586;48.710;9.202;2022-12-07T08:31:24;2.50;99.90
5136;DHT22;2586;48.710;9.202;2022-12-07T08:33:50;2.50;99.90
5136;DHT22;2586;48.710;9.202;2022-12-07T08:36:16;2.50;1.00
5136;DHT22;2586;48.710;9.202;2022-12-07T08:38:42;2.50;1.00
5136;DHT22;2586;48.710;9.202;2022-12-07T08:41:08;2.50;99.90
5136;DHT22;2586;48.710;9.202;2022-12-07T08:43:34;2.60;12.00
5136;DHT22;2586;48.710;9.202;2022-12-07T08:48:43;2.80;99.90
5136;DHT22;2586;48.710;9.202;2022-12-07T08:51:09;2.80;99.90
5136;DHT22;2586;48.710;9.202;2022-12-07T08:53:37;2.80;99.90
5136;DHT22;2586;48.710;9.202;2022-12-07T08:56:04;2.80;99.90
5136;DHT22;2586;48.710;9.202;2022-12-07T08:58:30;2.80;68.30
5136;DHT22;2586;48.710;9.202;2022-12-07T09:00:55;2.90;99.90
5136;DHT22;2586;48.710;9.202;2022-12-07T09:03:21;3.00;1.00
5136;DHT22;2586;48.710;9.202;2022-12-07T09:05:46;3.10;1.00
5136;DHT22;2586;48.710;9.202;2022-12-07T09:08:12;3.10;1.00
5136;DHT22;2586;48.710;9.202;2022-12-07T09:10:38;3.10;99.90
5136;DHT22;2586;48.710;9.202;2022-12-07T09:13:03;3.10;10.80
5136;DHT22;2586;48.710;9.202;2022-12-07T09:15:30;3.10;1.00
5136;DHT22;2586;48.710;9.202;2022-12-07T09:17:56;3.20;1.00
5136;DHT22;2586;48.710;9.202;2022-12-07T09:20:22;3.20;1.00
5136;DHT22;2586;48.710;9.202;2022-12-07T09:22:47;3.40;1.00
5136;DHT22;2586;48.710;9.202;2022-12-07T09:25:13;3.50;1.00
5136;DHT22;2586;48.710;9.202;2022-12-07T09:27:39;3.50;1.00
5136;DHT22;2586;48.710;9.202;2022-12-07T09:30:05;3.60;1.00
5136;DHT22;2586;48.710;9.202;2022-12-07T09:32:31;3.50;99.90
5136;DHT22;2586;48.710;9.202;2022-12-07T09:34:56;3.50;1.00
5136;DHT22;2586;48.710;9.202;2022-12-07T09:37:22;3.50;1.00
5136;DHT22;2586;48.710;9.202;2022-12-07T09:39:48;3.60;1.00
5136;DHT22;2586;48.710;9.202;2022-12-07T09:44:49;3.70;99.90
5136;DHT22;2586;48.710;9.202;2022-12-07T09:47:15;3.80;99.90
5136;DHT22;2586;48.710;9.202;2022-12-07T09:49:41;3.80;99.90
5136;DHT22;2586;48.710;9.202;2022-12-07T09:54:41;3.90;99.90
5136;DHT22;2586;48.710;9.202;2022-12-07T09:57:11;3.90;99.90
5136;DHT22;2586;48.710;9.202;2022-12-07T09:59:38;3.90;99.90
5136;DHT22;2586;48.710;9.202;2022-12-07T10:04:50;4.10;1.00
5136;DHT22;2586;48.710;9.202;2022-12-07T10:07:16;4.00;1.00
5136;DHT22;2586;48.710;9.202;2022-12-07T10:09:41;4.20;1.00
5136;DHT22;2586;48.710;9.202;2022-12-07T10:12:11;4.20;1.00
5136;DHT22;2586;48.710;9.202;2022-12-07T10:14:57;4.20;1.00
5136;DHT22;2586;48.710;9.202;2022-12-07T10:17:37;4.20;1.00
5136;DHT22;2586;48.710;9.202;2022-12-07T10:20:15;4.40;1.00
5136;DHT22;2586;48.710;9.202;2022-12-07T10:22:59;4.40;1.00
5136;DHT22;2586;48.710;9.202;2022-12-07T10:25:28;4.40;1.00
5136;DHT22;2586;48.710;9.202;2022-12-07T10:30:32;4.50;1.00
5136;DHT22;2586;48.710;9.202;2022-12-07T10:32:58;4.60;1.00
5136;DHT22;2586;48.710;9.202;2022-12-07T10:35:30;4.50;1.00
5136;DHT22;2586;48.710;9.202;2022-12-07T10:37:58;4.60;1.00
5136;DHT22;2586;48.710;9.202;2022-12-07T10:40:31;4.50;1.00
5136;DHT22;2586;48.710;9.202;2022-12-07T10:43:05;4.60;1.00
5136;DHT22;2586;48.710;9.202;2022-12-07T10:45:34;4.60;1.00
5136;DHT22;2586;48.710;9.202;2022-12-07T10:48:19;4.60;1.00
5136;DHT22;2586;48.710;9.202;2022-12-07T10:54:06;4.50;1.00
5136;DHT22;2586;48.710;9.202;2022-12-07T11:10:41;4.30;1.00
5136;DHT22;2586;48.710;9.202;2022-12-07T11:13:43;4.20;1.00
5136;DHT22;2586;48.710;9.202;2022-12-07T11:18:48;4.30;1.00
5136;DHT22;2586;48.710;9.202;2022-12-07T11:37:28;4.70;1.00
5136;DHT22;2586;48.710;9.202;2022-12-07T11:40:00;4.70;1.00
5136;DHT22;2586;48.710;9.202;2022-12-07T11:42:36;4.70;1.00
5136;DHT22;2586;48.710;9.202;2022-12-07T11:45:15;4.80;1.00
5136;DHT22;2586;48.710;9.202;2022-12-07T11:48:00;4.70;1.00
5136;DHT22;2586;48.710;9.202;2022-12-07T11:50:48;4.70;1.00
5136;DHT22;2586;48.710;9.202;2022-12-07T11:53:22;4.80;1.00
5136;DHT22;2586;48.710;9.202;2022-12-07T11:56:13;4.80;1.00
5136;DHT22;2586;48.710;9.202;2022-12-07T11:58:59;4.70;1.00
5136;DHT22;2586;48.710;9.202;2022-12-07T12:06:36;4.50;1.00
5136;DHT22;2586;48.710;9.202;2022-12-07T12:09:19;4.60;1.00
5136;DHT22;2586;48.710;9.202;2022-12-07T12:12:06;4.60;1.00
5136;DHT22;2586;48.710;9.202;2022-12-07T12:14:50;4.70;1.00
5136;DHT22;2586;48.710;9.202;2022-12-07T12:22:37;4.80;28.70
5136;DHT22;2586;48.710;9.202;2022-12-07T12:25:07;4.80;1.00
5136;DHT22;2586;48.710;9.202;2022-12-07T12:27:39;4.70;1.00
5136;DHT22;2586;48.710;9.202;2022-12-07T12:30:22;4.60;1.00
5136;DHT22;2586;48.710;9.202;2022-12-07T12:32:49;4.60;1.00
5136;DHT22;2586;48.710;9.202;2022-12-07T12:35:29;4.60;1.00
5136;DHT22;2586;48.710;9.202;2022-12-07T12:40:47;4.70;99.90
5136;DHT22;2586;48.710;9.202;2022-12-07T12:43:41;4.80;99.90
5136;DHT22;2586;48.710;9.202;2022-12-07T12:49:35;4.70;1.00
5136;DHT22;2586;48.710;9.202;2022-12-07T12:57:36;4.50;1.00
5136;DHT22;2586;48.710;9.202;2022-12-07T13:05:20;4.40;1.00
5136;DHT22;2586;48.710;9.202;2022-12-07T13:10:28;4.40;87.10
5136;DHT22;2586;48.710;9.202;2022-12-07T13:15:49;4.40;99.90
5136;DHT22;2586;48.710;9.202;2022-12-07T13:26:24;4.20;99.90
5136;DHT22;2586;48.710;9.202;2022-12-07T13:29:13;4.20;1.00
5136;DHT22;2586;48.710;9.202;2022-12-07T13:31:41;4.20;1.00
5136;DHT22;2586;48.710;9.202;2022-12-07T13:36:57;4.20;99.90
5136;DHT22;2586;48.710;9.202;2022-12-07T13:39:24;4.30;99.90
5136;DHT22;2586;48.710;9.202;2022-12-07T13:41:53;4.20;99.90
5136;DHT22;2586;48.710;9.202;2022-12-07T13:44:19;4.30;99.90
5136;DHT22;2586;48.710;9.202;2022-12-07T13:46:59;4.30;99.90
5136;DHT22;2586;48.710;9.202;2022-12-07T13:49:32;4.30;62.70
5136;DHT22;2586;48.710;9.202;2022-12-07T13:52:15;4.40;99.90
5136;DHT22;2586;48.710;9.202;2022-12-07T13:55:15;4.30;1.00
5136;DHT22;2586;48.710;9.202;2022-12-07T13:57:50;4.30;1.00
5136;DHT22;2586;48.710;9.202;2022-12-07T14:00:22;4.30;99.90
5136;DHT22;2586;48.710;9.202;2022-12-07T14:06:03;4.50;23.40
5136;DHT22;2586;48.710;9.202;2022-12-07T14:08:30;4.40;1.00
5136;DHT22;2586;48.710;9.202;2022-12-07T14:10:57;4.40;1.00
5136;DHT22;2586;48.710;9.202;2022-12-07T14:13:33;4.40;99.90
5136;DHT22;2586;48.710;9.202;2022-12-07T14:19:02;4.40;99.90
5136;DHT22;2586;48.710;9.202;2022-12-07T14:21:30;4.30;99.90
5136;DHT22;2586;48.710;9.202;2022-12-07T14:24:16;4.30;99.90
5136;DHT22;2586;48.710;9.202;2022-12-07T14:26:44;4.30;99.90
5136;DHT22;2586;48.710;9.202;2022-12-07T14:29:37;4.30;99.90
5136;DHT22;2586;48.710;9.202;2022-12-07T14:32:19;4.20;99.90
5136;DHT22;2586;48.710;9.202;2022-12-07T14:35:00;4.20;99.90
5136;DHT22;2586;48.710;9.202;2022-12-07T14:37:27;4.20;99.90
5136;DHT22;2586;48.710;9.202;2022-12-07T14:39:54;4.20;99.90
5136;DHT22;2586;48.710;9.202;2022-12-07T14:42:20;4.20;99.90
5136;DHT22;2586;48.710;9.202;2022-12-07T14:44:47;4.20;99.90
5136;DHT22;2586;48.710;9.202;2022-12-07T14:47:12;4.00;99.90
5136;DHT22;2586;48.710;9.202;2022-12-07T14:49:38;4.00;99.90
5136;DHT22;2586;48.710;9.202;2022-12-07T14:52:05;4.00;99.90
5136;DHT22;2586;48.710;9.202;2022-12-07T14:54:32;3.90;99.90
5136;DHT22;2586;48.710;9.202;2022-12-07T14:56:58;3.90;1.00
5136;DHT22;2586;48.710;9.202;2022-12-07T14:59:24;3.80;1.00
5136;DHT22;2586;48.710;9.202;2022-12-07T15:01:50;3.80;1.00
5136;DHT22;2586;48.710;9.202;2022-12-07T15:04:16;3.80;1.00
5136;DHT22;2586;48.710;9.202;2022-12-07T15:06:41;3.80;1.00
5136;DHT22;2586;48.710;9.202;2022-12-07T15:09:11;3.80;1.00
5136;DHT22;2586;48.710;9.202;2022-12-07T15:11:37;3.70;1.00
5136;DHT22;2586;48.710;9.202;2022-12-07T15:14:02;3.70;1.00
5136;DHT22;2586;48.710;9.202;2022-12-07T15:16:37;3.80;32.60
5136;DHT22;2586;48.710;9.202;2022-12-07T15:19:05;3.80;1.00
5136;DHT22;2586;48.710;9.202;2022-12-07T15:21:30;3.80;1.00
5136;DHT22;2586;48.710;9.202;2022-12-07T15:23:56;3.80;1.00
5136;DHT22;2586;48.710;9.202;2022-12-07T15:26:22;3.70;85.50
5136;DHT22;2586;48.710;9.202;2022-12-07T15:28:47;3.70;1.00
5136;DHT22;2586;48.710;9.202;2022-12-07T15:31:15;3.70;19.10
5136;DHT22;2586;48.710;9.202;2022-12-07T15:33:41;3.70;99.90
5136;DHT22;2586;48.710;9.202;2022-12-07T15:36:07;3.80;99.90
5136;DHT22;2586;48.710;9.202;2022-12-07T15:38:34;3.70;99.90
5136;DHT22;2586;48.710;9.202;2022-12-07T15:41:00;3.80;99.90
5136;DHT22;2586;48.710;9.202;2022-12-07T15:43:25;3.80;99.90
5136;DHT22;2586;48.710;9.202;2022-12-07T15:46:09;3.70;99.90
5136;DHT22;2586;48.710;9.202;2022-12-07T15:48:35;3.80;99.90
5136;DHT22;2586;48.710;9.202;2022-12-07T15:51:05;3.80;99.90
5136;DHT22;2586;48.710;9.202;2022-12-07T15:53:31;3.70;99.90
5136;DHT22;2586;48.710;9.202;2022-12-07T15:55:57;3.70;99.90
5136;DHT22;2586;48.710;9.202;2022-12-07T15:58:22;3.60;1.00
5136;DHT22;2586;48.710;9.202;2022-12-07T16:00:48;3.60;1.00
5136;DHT22;2586;48.710;9.202;2022-12-07T16:03:14;3.50;1.00
5136;DHT22;2586;48.710;9.202;2022-12-07T16:05:39;3.50;1.00
5136;DHT22;2586;48.710;9.202;2022-12-07T16:08:05;3.50;1.00
5136;DHT22;2586;48.710;9.202;2022-12-07T16:10:31;3.50;1.00
5136;DHT22;2586;48.710;9.202;2022-12-07T16:12:56;3.40;1.00
5136;DHT22;2586;48.710;9.202;2022-12-07T16:15:22;3.40;4.10
5136;DHT22;2586;48.710;9.202;2022-12-07T16:17:50;3.40;11.20
5136;DHT22;2586;48.710;9.202;2022-12-07T16:20:16;3.30;34.80
5136;DHT22;2586;48.710;9.202;2022-12-07T16:22:41;3.30;27.90
5136;DHT22;2586;48.710;9.202;2022-12-07T16:25:07;3.30;99.90
5136;DHT22;2586;48.710;9.202;2022-12-07T16:27:33;3.20;99.90
5136;DHT22;2586;48.710;9.202;2022-12-07T16:29:59;3.20;99.90
5136;DHT22;2586;48.710;9.202;2022-12-07T16:32:24;3.20;99.90
5136;DHT22;2586;48.710;9.202;2022-12-07T16:34:50;3.10;99.90
5136;DHT22;2586;48.710;9.202;2022-12-07T16:37:15;3.10;99.90
5136;DHT22;2586;48.710;9.202;2022-12-07T16:39:41;3.10;99.90
5136;DHT22;2586;48.710;9.202;2022-12-07T16:42:07;3.10;99.90
5136;DHT22;2586;48.710;9.202;2022-12-07T16:44:32;3.10;99.90
5136;DHT22;2586;48.710;9.202;2022-12-07T16:46:58;3.00;99.90
5136;DHT22;2586;48.710;9.202;2022-12-07T16:49:24;3.00;99.90
5136;DHT22;2586;48.710;9.202;2022-12-07T16:51:50;3.00;99.90
5136;DHT22;2586;48.710;9.202;2022-12-07T16:54:16;3.00;99.90
5136;DHT22;2586;48.710;9.202;2022-12-07T16:56:41;3.00;99.90
5136;DHT22;2586;48.710;9.202;2022-12-07T16:59:07;3.00;99.90
5136;DHT22;2586;48.710;9.202;2022-12-07T17:01:33;3.00;1.00
5136;DHT22;2586;48.710;9.202;2022-12-07T17:04:00;2.90;99.90
5136;DHT22;2586;48.710;9.202;2022-12-07T17:06:27;2.90;1.00
5136;DHT22;2586;48.710;9.202;2022-12-07T17:08:54;2.80;99.90
5136;DHT22;2586;48.710;9.202;2022-12-07T17:11:22;2.80;99.90
5136;DHT22;2586;48.710;9.202;2022-12-07T17:13:48;2.80;99.90
5136;DHT22;2586;48.710;9.202;2022-12-07T17:16:33;2.80;99.90
5136;DHT22;2586;48.710;9.202;2022-12-07T17:19:00;3.70;99.90
5136;DHT22;2586;48.710;9.202;2022-12-07T17:21:28;3.90;1.00
5136;DHT22;2586;48.710;9.202;2022-12-07T17:23:53;3.90;93.40
5136;DHT22;2586;48.710;9.202;2022-12-07T17:26:24;4.20;1.00
5136;DHT22;2586;48.710;9.202;2022-12-07T17:28:50;4.30;83.30
5136;DHT22;2586;48.710;9.202;2022-12-07T17:31:18;4.20;1.00
5136;DHT22;2586;48.710;9.202;2022-12-07T17:33:44;4.20;99.90
5136;DHT22;2586;48.710;9.202;2022-12-07T17:36:24;4.20;99.90
5136;DHT22;2586;48.710;9.202;2022-12-07T17:38:50;4.60;1.00
5136;DHT22;2586;48.710;9.202;2022-12-07T17:44:11;4.60;99.90
5136;DHT22;2586;48.710;9.202;2022-12-07T17:46:37;4.00;1.00
5136;DHT22;2586;48.710;9.202;2022-12-07T17:49:03;3.70;1.00
5136;DHT22;2586;48.710;9.202;2022-12-07T17:51:29;3.50;1.00
5136;DHT22;2586;48.710;9.202;2022-12-07T17:54:13;3.30;99.90
5136;DHT22;2586;48.710;9.202;2022-12-07T17:56:40;3.10;99.90
5136;DHT22;2586;48.710;9.202;2022-12-07T17:59:06;3.00;1.00
5136;DHT22;2586;48.710;9.202;2022-12-07T18:01:32;3.00;1.00
5136;DHT22;2586;48.710;9.202;2022-12-07T18:03:58;2.90;1.00
5136;DHT22;2586;48.710;9.202;2022-12-07T18:06:23;2.80;1.00
5136;DHT22;2586;48.710;9.202;2022-12-07T18:08:49;2.80;77.00
5136;DHT22;2586;48.710;9.202;2022-12-07T18:11:14;2.80;99.90
5136;DHT22;2586;48.710;9.202;2022-12-07T18:13:40;2.70;99.90
5136;DHT22;2586;48.710;9.202;2022-12-07T18:16:14;2.70;99.90
5136;DHT22;2586;48.710;9.202;2022-12-07T18:18:40;2.70;99.90
5136;DHT22;2586;48.710;9.202;2022-12-07T18:21:11;2.70;99.90
5136;DHT22;2586;48.710;9.202;2022-12-07T18:23:40;2.70;99.90
5136;DHT22;2586;48.710;9.202;2022-12-07T18:26:06;2.70;99.90
5136;DHT22;2586;48.710;9.202;2022-12-07T18:28:31;2.70;99.90
5136;DHT22;2586;48.710;9.202;2022-12-07T18:30:57;2.70;99.90
5136;DHT22;2586;48.710;9.202;2022-12-07T18:33:23;2.70;99.90
5136;DHT22;2586;48.710;9.202;2022-12-07T18:35:49;2.70;99.90
5136;DHT22;2586;48.710;9.202;2022-12-07T18:38:16;2.70;99.90